sensor_id;sensor_type;location;lat;lon;timestamp;temperature;humidity
19947;DHT22;10135;50.702;7.276;2023-04-19T05:01:44;13.70;55.90
19947;DHT22;10135;50.702;7.276;2023-04-19T05:03:45;13.70;56.40
19947;DHT22;10135;50.702;7.276;2023-04-19T05:05:45;13.70;56.60
19947;DHT22;10135;50.702;7.276;2023-04-19T05:07:46;13.70;57.20
19947;DHT22;10135;50.702;7.276;2023-04-19T05:09:47;13.70;56.60
19947;DHT22;10135;50.702;7.276;2023-04-19T05:11:47;13.70;56.70
19947;DHT22;10135;50.702;7.276;2023-04-19T05:13:48;13.70;56.70
19947;DHT22;10135;50.702;7.276;2023-04-19T05:15:48;13.70;56.80
19947;DHT22;10135;50.702;7.276;2023-04-19T05:17:49;13.70;56.80
19947;DHT22;10135;50.702;7.276;2023-04-19T05:19:50;13.60;56.80
19947;DHT22;10135;50.702;7.276;2023-04-19T05:21:50;13.60;56.80
19947;DHT22;10135;50.702;7.276;2023-04-19T05:23:52;13.70;57.50
19947;DHT22;10135;50.702;7.276;2023-04-19T05:25:52;13.70;57.00
19947;DHT22;10135;50.702;7.276;2023-04-19T05:27:53;13.70;57.00
19947;DHT22;10135;50.702;7.276;2023-04-19T05:29:54;13.70;57.00
19947;DHT22;10135;50.702;7.276;2023-04-19T05:31:54;13.80;57.20
19947;DHT22;10135;50.702;7.276;2023-04-19T05:33:56;13.80;57.10
19947;DHT22;10135;50.702;7.276;2023-04-19T05:35:57;13.80;57.10
19947;DHT22;10135;50.702;7.276;2023-04-19T05:37:58;13.80;57.10
19947;DHT22;10135;50.702;7.276;2023-04-19T05:39:58;13.80;57.20
19947;DHT22;10135;50.702;7.276;2023-04-19T05:41:59;13.90;57.20
19947;DHT22;10135;50.702;7.276;2023-04-19T05:44:01;13.90;57.20
19947;DHT22;10135;50.702;7.276;2023-04-19T05:46:01;13.90;57.20
19947;DHT22;10135;50.702;7.276;2023-04-19T05:48:02;13.90;57.20
19947;DHT22;10135;50.702;7.276;2023-04-19T05:50:03;13.90;57.20
19947;DHT22;10135;50.702;7.276;2023-04-19T05:52:04;14.00;57.30
19947;DHT22;10135;50.702;7.276;2023-04-19T05:54:05;14.00;57.30
19947;DHT22;10135;50.702;7.276;2023-04-19T05:56:05;14.10;57.30
19947;DHT22;10135;50.702;7.276;2023-04-19T05:58:06;14.10;57.30
19947;DHT22;10135;50.702;7.276;2023-04-19T06:00:07;14.20;57.30
19947;DHT22;10135;50.702;7.276;2023-04-19T06:02:09;14.20;57.30
19947;DHT22;10135;50.702;7.276;2023-04-19T06:04:10;14.20;57.30
19947;DHT22;10135;50.702;7.276;2023-04-19T06:06:10;14.30;57.30
19947;DHT22;10135;50.702;7.276;2023-04-19T06:08:11;14.30;57.30
19947;DHT22;10135;50.702;7.276;2023-04-19T06:10:12;14.30;57.30
19947;DHT22;10135;50.702;7.276;2023-04-19T06:12:13;14.30;57.30
19947;DHT22;10135;50.702;7.276;2023-04-19T06:14:14;14.40;57.30
19947;DHT22;10135;50.702;7.276;2023-04-19T06:16:14;14.40;57.30
19947;DHT22;10135;50.702;7.276;2023-04-19T06:18:15;14.40;57.30
19947;DHT22;10135;50.702;7.276;2023-04-19T06:20:15;14.40;57.30
19947;DHT22;10135;50.702;7.276;2023-04-19T06:22:17;14.40;57.30
19947;DHT22;10135;50.702;7.276;2023-04-19T06:24:17;14.50;57.30
19947;DHT22;10135;50.702;7.276;2023-04-19T06:26:18;14.40;57.30
19947;DHT22;10135;50.702;7.276;2023-04-19T06:28:19;14.40;57.30
19947;DHT22;10135;50.702;7.276;2023-04-19T06:30:19;14.40;57.30
19947;DHT22;10135;50.702;7.276;2023-04-19T06:32:20;14.50;57.30
19947;DHT22;10135;50.702;7.276;2023-04-19T06:34:21;14.50;57.30
19947;DHT22;10135;50.702;7.276;2023-04-19T06:36:21;14.50;57.30
19947;DHT22;10135;50.702;7.276;2023-04-19T06:38:22;14.50;57.30
19947;DHT22;10135;50.702;7.276;2023-04-19T06:40:23;14.50;57.30
19947;DHT22;10135;50.702;7.276;2023-04-19T06:42:23;14.50;57.30
19947;DHT22;10135;50.702;7.276;2023-04-19T06:44:25;14.60;57.40
19947;DHT22;10135;50.702;7.276;2023-04-19T06:46:26;14.60;57.40
19947;DHT22;10135;50.702;7.276;2023-04-19T06:48:27;14.50;57.30
19947;DHT22;10135;50.702;7.276;2023-04-19T06:50:28;14.60;57.40
19947;DHT22;10135;50.702;7.276;2023-04-19T06:52:29;14.60;57.40
19947;DHT22;10135;50.702;7.276;2023-04-19T06:54:29;14.60;57.40
19947;DHT22;10135;50.702;7.276;2023-04-19T06:56:47;14.70;57.50
19947;DHT22;10135;50.702;7.276;2023-04-19T06:58:49;14.70;57.70
19947;DHT22;10135;50.702;7.276;2023-04-19T07:00:49;14.70;57.40
19947;DHT22;10135;50.702;7.276;2023-04-19T07:02:50;14.70;57.30
19947;DHT22;10135;50.702;7.276;2023-04-19T07:04:51;14.80;57.40
19947;DHT22;10135;50.702;7.276;2023-04-19T07:06:52;14.70;57.40
19947;DHT22;10135;50.702;7.276;2023-04-19T07:08:52;14.80;57.40
19947;DHT22;10135;50.702;7.276;2023-04-19T07:10:53;14.80;57.20
19947;DHT22;10135;50.702;7.276;2023-04-19T07:12:55;14.80;57.20
19947;DHT22;10135;50.702;7.276;2023-04-19T07:14:56;14.80;57.10
19947;DHT22;10135;50.702;7.276;2023-04-19T07:16:57;14.80;57.20
19947;DHT22;10135;50.702;7.276;2023-04-19T07:18:57;14.80;57.20
19947;DHT22;10135;50.702;7.276;2023-04-19T07:20:58;14.80;57.20
19947;DHT22;10135;50.702;7.276;2023-04-19T07:22:59;14.80;57.10
19947;DHT22;10135;50.702;7.276;2023-04-19T07:25:00;14.90;57.10
19947;DHT22;10135;50.702;7.276;2023-04-19T07:27:00;14.90;57.10
19947;DHT22;10135;50.702;7.276;2023-04-19T07:29:02;14.90;57.10
19947;DHT22;10135;50.702;7.276;2023-04-19T07:31:02;14.90;57.10
19947;DHT22;10135;50.702;7.276;2023-04-19T07:33:03;15.00;57.20
19947;DHT22;10135;50.702;7.276;2023-04-19T07:35:04;15.00;57.10
19947;DHT22;10135;50.702;7.276;2023-04-19T07:37:06;15.00;57.10
19947;DHT22;10135;50.702;7.276;2023-04-19T07:39:07;15.10;57.20
19947;DHT22;10135;50.702;7.276;2023-04-19T07:41:08;15.20;57.40
19947;DHT22;10135;50.702;7.276;2023-04-19T07:43:09;15.30;57.40
19947;DHT22;10135;50.702;7.276;2023-04-19T07:45:10;15.40;57.50
19947;DHT22;10135;50.702;7.276;2023-04-19T07:47:11;15.60;57.70
19947;DHT22;10135;50.702;7.276;2023-04-19T07:49:12;15.90;57.90
19947;DHT22;10135;50.702;7.276;2023-04-19T07:51:15;16.10;57.70
19947;DHT22;10135;50.702;7.276;2023-04-19T07:53:16;16.40;57.50
19947;DHT22;10135;50.702;7.276;2023-04-19T07:55:18;16.60;57.50
19947;DHT22;10135;50.702;7.276;2023-04-19T07:57:18;16.90;57.40
19947;DHT22;10135;50.702;7.276;2023-04-19T07:59:19;17.10;57.30
19947;DHT22;10135;50.702;7.276;2023-04-19T08:01:19;17.40;57.10
19947;DHT22;10135;50.702;7.276;2023-04-19T08:03:21;17.70;57.00
19947;DHT22;10135;50.702;7.276;2023-04-19T08:05:22;18.00;56.80
19947;DHT22;10135;50.702;7.276;2023-04-19T08:07:23;18.20;56.60
19947;DHT22;10135;50.702;7.276;2023-04-19T08:09:25;18.40;56.50
19947;DHT22;10135;50.702;7.276;2023-04-19T08:11:26;18.70;56.30
19947;DHT22;10135;50.702;7.276;2023-04-19T08:13:27;18.90;55.90
19947;DHT22;10135;50.702;7.276;2023-04-19T08:15:28;19.10;55.70
19947;DHT22;10135;50.702;7.276;2023-04-19T08:17:29;19.20;55.20
19947;DHT22;10135;50.702;7.276;2023-04-19T08:19:30;19.30;54.80
19947;DHT22;10135;50.702;7.276;2023-04-19T08:21:31;19.20;54.50
19947;DHT22;10135;50.702;7.276;2023-04-19T08:23:31;19.20;54.50
19947;DHT22;10135;50.702;7.276;2023-04-19T08:25:32;19.30;54.60
19947;DHT22;10135;50.702;7.276;2023-04-19T08:27:32;19.40;54.80
19947;DHT22;10135;50.702;7.276;2023-04-19T08:29:33;19.60;54.90
19947;DHT22;10135;50.702;7.276;2023-04-19T08:31:34;19.80;54.70
19947;DHT22;10135;50.702;7.276;2023-04-19T08:33:35;19.90;54.30
19947;DHT22;10135;50.702;7.276;2023-04-19T08:35:38;20.00;54.10
19947;DHT22;10135;50.702;7.276;2023-04-19T08:37:42;20.00;53.60
19947;DHT22;10135;50.702;7.276;2023-04-19T08:39:42;20.10;53.70
19947;DHT22;10135;50.702;7.276;2023-04-19T08:41:43;20.10;53.80
19947;DHT22;10135;50.702;7.276;2023-04-19T08:43:44;20.30;53.90
19947;DHT22;10135;50.702;7.276;2023-04-19T08:45:48;20.40;53.80
19947;DHT22;10135;50.702;7.276;2023-04-19T08:47:50;20.50;53.60
19947;DHT22;10135;50.702;7.276;2023-04-19T08:49:51;20.70;53.60
19947;DHT22;10135;50.702;7.276;2023-04-19T08:51:57;20.80;53.40
19947;DHT22;10135;50.702;7.276;2023-04-19T08:53:58;20.90;52.90
19947;DHT22;10135;50.702;7.276;2023-04-19T08:56:01;20.90;52.60
19947;DHT22;10135;50.702;7.276;2023-04-19T08:58:03;20.90;52.40
19947;DHT22;10135;50.702;7.276;2023-04-19T09:00:04;20.90;52.10
19947;DHT22;10135;50.702;7.276;2023-04-19T09:02:08;20.80;51.90
19947;DHT22;10135;50.702;7.276;2023-04-19T09:04:08;20.70;51.80
19947;DHT22;10135;50.702;7.276;2023-04-19T09:06:09;20.60;51.70
19947;DHT22;10135;50.702;7.276;2023-04-19T09:08:26;20.50;51.60
19947;DHT22;10135;50.702;7.276;2023-04-19T09:10:27;20.30;50.60
19947;DHT22;10135;50.702;7.276;2023-04-19T09:12:28;20.20;51.50
19947;DHT22;10135;50.702;7.276;2023-04-19T09:14:29;20.10;51.40
19947;DHT22;10135;50.702;7.276;2023-04-19T09:16:29;20.00;51.50
19947;DHT22;10135;50.702;7.276;2023-04-19T09:18:30;19.90;51.50
19947;DHT22;10135;50.702;7.276;2023-04-19T09:20:41;19.70;51.40
19947;DHT22;10135;50.702;7.276;2023-04-19T09:23:05;19.60;50.90
19947;DHT22;10135;50.702;7.276;2023-04-19T09:25:07;19.50;50.70
19947;DHT22;10135;50.702;7.276;2023-04-19T09:27:08;19.40;51.50
19947;DHT22;10135;50.702;7.276;2023-04-19T09:29:16;19.30;51.50
19947;DHT22;10135;50.702;7.276;2023-04-19T09:31:16;19.20;51.20
19947;DHT22;10135;50.702;7.276;2023-04-19T09:33:34;19.20;51.60
19947;DHT22;10135;50.702;7.276;2023-04-19T09:35:47;19.10;50.80
19947;DHT22;10135;50.702;7.276;2023-04-19T09:37:58;19.10;51.10
19947;DHT22;10135;50.702;7.276;2023-04-19T09:40:00;19.00;50.50
19947;DHT22;10135;50.702;7.276;2023-04-19T09:42:04;18.90;51.10
19947;DHT22;10135;50.702;7.276;2023-04-19T09:44:10;18.80;51.20
19947;DHT22;10135;50.702;7.276;2023-04-19T09:46:44;18.70;50.90
19947;DHT22;10135;50.702;7.276;2023-04-19T09:48:48;18.60;50.40
19947;DHT22;10135;50.702;7.276;2023-04-19T09:50:57;18.50;51.30
19947;DHT22;10135;50.702;7.276;2023-04-19T09:52:59;18.50;51.00
19947;DHT22;10135;50.702;7.276;2023-04-19T09:55:01;18.40;51.50
19947;DHT22;10135;50.702;7.276;2023-04-19T09:57:07;18.40;51.50
19947;DHT22;10135;50.702;7.276;2023-04-19T09:59:09;18.40;51.60
19947;DHT22;10135;50.702;7.276;2023-04-19T10:01:10;18.40;51.50
19947;DHT22;10135;50.702;7.276;2023-04-19T10:03:12;18.40;51.50
19947;DHT22;10135;50.702;7.276;2023-04-19T10:05:15;18.40;51.50
19947;DHT22;10135;50.702;7.276;2023-04-19T10:07:16;18.50;51.40
19947;DHT22;10135;50.702;7.276;2023-04-19T10:09:18;18.50;51.50
19947;DHT22;10135;50.702;7.276;2023-04-19T10:11:25;18.60;51.60
19947;DHT22;10135;50.702;7.276;2023-04-19T10:13:32;18.70;51.30
19947;DHT22;10135;50.702;7.276;2023-04-19T10:15:37;18.80;51.40
19947;DHT22;10135;50.702;7.276;2023-04-19T10:17:38;18.80;51.20
19947;DHT22;10135;50.702;7.276;2023-04-19T10:19:40;18.90;51.00
19947;DHT22;10135;50.702;7.276;2023-04-19T10:21:42;19.00;50.90
19947;DHT22;10135;50.702;7.276;2023-04-19T10:23:46;19.00;50.80
19947;DHT22;10135;50.702;7.276;2023-04-19T10:25:48;19.10;50.80
19947;DHT22;10135;50.702;7.276;2023-04-19T10:27:48;19.10;50.60
19947;DHT22;10135;50.702;7.276;2023-04-19T10:31:51;19.20;50.50
19947;DHT22;10135;50.702;7.276;2023-04-19T10:33:52;19.20;50.20
19947;DHT22;10135;50.702;7.276;2023-04-19T10:35:57;19.20;49.90
19947;DHT22;10135;50.702;7.276;2023-04-19T10:38:12;19.20;49.50
19947;DHT22;10135;50.702;7.276;2023-04-19T10:45:32;19.20;48.00
19947;DHT22;10135;50.702;7.276;2023-04-19T10:47:42;19.20;47.90
19947;DHT22;10135;50.702;7.276;2023-04-19T10:49:44;19.20;48.30
19947;DHT22;10135;50.702;7.276;2023-04-19T10:51:51;19.20;49.00
19947;DHT22;10135;50.702;7.276;2023-04-19T10:55:56;19.20;49.00
19947;DHT22;10135;50.702;7.276;2023-04-19T10:58:06;19.20;49.10
19947;DHT22;10135;50.702;7.276;2023-04-19T11:00:20;19.20;48.30
19947;DHT22;10135;50.702;7.276;2023-04-19T11:06:35;19.30;47.70
19947;DHT22;10135;50.702;7.276;2023-04-19T11:08:42;19.30;48.20
19947;DHT22;10135;50.702;7.276;2023-04-19T11:10:45;19.30;48.00
19947;DHT22;10135;50.702;7.276;2023-04-19T11:12:46;19.30;48.30
19947;DHT22;10135;50.702;7.276;2023-04-19T11:14:51;19.30;48.30
19947;DHT22;10135;50.702;7.276;2023-04-19T11:16:53;19.30;48.10
19947;DHT22;10135;50.702;7.276;2023-04-19T11:18:54;19.30;48.20
19947;DHT22;10135;50.702;7.276;2023-04-19T11:20:55;19.30;48.10
19947;DHT22;10135;50.702;7.276;2023-04-19T11:22:57;19.30;48.00
19947;DHT22;10135;50.702;7.276;2023-04-19T11:25:17;19.30;48.00
19947;DHT22;10135;50.702;7.276;2023-04-19T11:27:20;19.30;46.70
19947;DHT22;10135;50.702;7.276;2023-04-19T11:29:21;19.30;47.50
19947;DHT22;10135;50.702;7.276;2023-04-19T11:31:21;19.30;47.50
19947;DHT22;10135;50.702;7.276;2023-04-19T11:33:23;19.30;46.90
19947;DHT22;10135;50.702;7.276;2023-04-19T11:35:26;19.40;47.10
19947;DHT22;10135;50.702;7.276;2023-04-19T11:37:33;19.40;46.80
19947;DHT22;10135;50.702;7.276;2023-04-19T11:39:45;19.40;46.30
19947;DHT22;10135;50.702;7.276;2023-04-19T11:41:46;19.40;46.00
19947;DHT22;10135;50.702;7.276;2023-04-19T11:43:47;19.40;46.90
19947;DHT22;10135;50.702;7.276;2023-04-19T11:45:48;19.40;46.70
19947;DHT22;10135;50.702;7.276;2023-04-19T11:47:49;19.50;46.60
19947;DHT22;10135;50.702;7.276;2023-04-19T11:49:50;19.50;46.50
19947;DHT22;10135;50.702;7.276;2023-04-19T11:52:00;19.50;46.50
19947;DHT22;10135;50.702;7.276;2023-04-19T11:54:11;19.50;45.90
19947;DHT22;10135;50.702;7.276;2023-04-19T11:56:14;19.60;45.50
19947;DHT22;10135;50.702;7.276;2023-04-19T11:58:26;19.60;47.00
19947;DHT22;10135;50.702;7.276;2023-04-19T12:00:29;19.60;45.70
19947;DHT22;10135;50.702;7.276;2023-04-19T12:02:30;19.70;46.00
19947;DHT22;10135;50.702;7.276;2023-04-19T12:04:30;19.70;46.10
19947;DHT22;10135;50.702;7.276;2023-04-19T12:06:31;19.70;46.10
19947;DHT22;10135;50.702;7.276;2023-04-19T12:08:36;19.70;46.00
19947;DHT22;10135;50.702;7.276;2023-04-19T12:10:37;19.70;45.90
19947;DHT22;10135;50.702;7.276;2023-04-19T12:12:38;19.70;45.80
19947;DHT22;10135;50.702;7.276;2023-04-19T12:14:38;19.60;45.70
19947;DHT22;10135;50.702;7.276;2023-04-19T12:17:04;19.60;45.60
19947;DHT22;10135;50.702;7.276;2023-04-19T12:19:13;19.50;44.90
19947;DHT22;10135;50.702;7.276;2023-04-19T12:21:26;19.50;45.00
19947;DHT22;10135;50.702;7.276;2023-04-19T12:23:28;19.40;44.80
19947;DHT22;10135;50.702;7.276;2023-04-19T12:25:30;19.30;45.60
19947;DHT22;10135;50.702;7.276;2023-04-19T12:27:32;19.20;45.40
19947;DHT22;10135;50.702;7.276;2023-04-19T12:29:33;19.20;45.60
19947;DHT22;10135;50.702;7.276;2023-04-19T12:31:34;19.20;45.70
19947;DHT22;10135;50.702;7.276;2023-04-19T12:33:35;19.10;45.70
19947;DHT22;10135;50.702;7.276;2023-04-19T12:35:36;19.20;45.50
19947;DHT22;10135;50.702;7.276;2023-04-19T12:37:37;19.20;45.40
19947;DHT22;10135;50.702;7.276;2023-04-19T12:39:38;19.10;45.20
19947;DHT22;10135;50.702;7.276;2023-04-19T12:41:39;19.10;45.20
19947;DHT22;10135;50.702;7.276;2023-04-19T12:43:39;19.00;45.20
19947;DHT22;10135;50.702;7.276;2023-04-19T12:45:40;19.00;45.10
19947;DHT22;10135;50.702;7.276;2023-04-19T12:47:41;19.00;45.00
19947;DHT22;10135;50.702;7.276;2023-04-19T12:49:42;19.00;45.10
19947;DHT22;10135;50.702;7.276;2023-04-19T12:51:43;19.00;44.90
19947;DHT22;10135;50.702;7.276;2023-04-19T12:53:47;19.00;44.70
19947;DHT22;10135;50.702;7.276;2023-04-19T12:55:49;19.00;44.70
19947;DHT22;10135;50.702;7.276;2023-04-19T12:57:50;19.00;44.60
19947;DHT22;10135;50.702;7.276;2023-04-19T12:59:51;19.00;44.30
19947;DHT22;10135;50.702;7.276;2023-04-19T13:01:51;19.00;44.20
19947;DHT22;10135;50.702;7.276;2023-04-19T13:03:52;19.00;44.00
19947;DHT22;10135;50.702;7.276;2023-04-19T13:05:53;19.00;44.00
19947;DHT22;10135;50.702;7.276;2023-04-19T13:07:53;19.00;44.00
19947;DHT22;10135;50.702;7.276;2023-04-19T13:09:54;19.00;43.60
19947;DHT22;10135;50.702;7.276;2023-04-19T13:11:55;19.00;43.60
19947;DHT22;10135;50.702;7.276;2023-04-19T13:13:57;19.00;43.50
19947;DHT22;10135;50.702;7.276;2023-04-19T13:15:57;19.00;43.50
19947;DHT22;10135;50.702;7.276;2023-04-19T13:17:58;19.00;43.10
19947;DHT22;10135;50.702;7.276;2023-04-19T13:19:59;19.00;42.80
19947;DHT22;10135;50.702;7.276;2023-04-19T13:21:59;19.10;43.00
19947;DHT22;10135;50.702;7.276;2023-04-19T13:24:00;19.10;42.50
19947;DHT22;10135;50.702;7.276;2023-04-19T13:26:01;19.10;42.50
19947;DHT22;10135;50.702;7.276;2023-04-19T13:28:02;19.10;42.60
19947;DHT22;10135;50.702;7.276;2023-04-19T13:30:02;19.10;42.50
19947;DHT22;10135;50.702;7.276;2023-04-19T13:32:03;19.10;42.30
19947;DHT22;10135;50.702;7.276;2023-04-19T13:34:11;19.10;42.20
19947;DHT22;10135;50.702;7.276;2023-04-19T13:36:12;19.10;42.20
19947;DHT22;10135;50.702;7.276;2023-04-19T13:38:12;19.10;42.20
19947;DHT22;10135;50.702;7.276;2023-04-19T13:40:13;19.10;42.70
19947;DHT22;10135;50.702;7.276;2023-04-19T13:42:14;19.10;41.90
19947;DHT22;10135;50.702;7.276;2023-04-19T13:44:15;19.10;41.70
19947;DHT22;10135;50.702;7.276;2023-04-19T13:46:15;19.10;41.60
19947;DHT22;10135;50.702;7.276;2023-04-19T13:48:16;19.10;41.50
19947;DHT22;10135;50.702;7.276;2023-04-19T13:50:16;19.10;42.20
19947;DHT22;10135;50.702;7.276;2023-04-19T13:52:18;19.10;41.50
19947;DHT22;10135;50.702;7.276;2023-04-19T13:54:19;19.10;41.60
19947;DHT22;10135;50.702;7.276;2023-04-19T13:56:20;19.10;41.70
19947;DHT22;10135;50.702;7.276;2023-04-19T13:58:20;19.10;41.30
19947;DHT22;10135;50.702;7.276;2023-04-19T14:00:21;19.10;41.20
19947;DHT22;10135;50.702;7.276;2023-04-19T14:02:22;19.10;40.80
19947;DHT22;10135;50.702;7.276;2023-04-19T14:04:23;19.10;40.80
19947;DHT22;10135;50.702;7.276;2023-04-19T14:06:23;19.10;40.80
19947;DHT22;10135;50.702;7.276;2023-04-19T14:08:24;19.00;40.80
19947;DHT22;10135;50.702;7.276;2023-04-19T14:10:25;19.00;40.60
19947;DHT22;10135;50.702;7.276;2023-04-19T14:12:25;19.00;40.70
19947;DHT22;10135;50.702;7.276;2023-04-19T14:14:26;19.00;40.60
19947;DHT22;10135;50.702;7.276;2023-04-19T14:16:27;19.00;40.50
19947;DHT22;10135;50.702;7.276;2023-04-19T14:18:27;19.00;40.50
19947;DHT22;10135;50.702;7.276;2023-04-19T14:20:28;19.10;40.40
19947;DHT22;10135;50.702;7.276;2023-04-19T14:22:28;19.10;40.10
19947;DHT22;10135;50.702;7.276;2023-04-19T14:24:31;19.10;40.30
19947;DHT22;10135;50.702;7.276;2023-04-19T14:26:32;19.10;40.10
19947;DHT22;10135;50.702;7.276;2023-04-19T14:28:32;19.10;40.00
19947;DHT22;10135;50.702;7.276;2023-04-19T14:30:33;19.10;40.00
19947;DHT22;10135;50.702;7.276;2023-04-19T14:32:34;19.00;39.60
19947;DHT22;10135;50.702;7.276;2023-04-19T14:34:35;19.00;39.70
19947;DHT22;10135;50.702;7.276;2023-04-19T14:36:35;19.00;39.80
19947;DHT22;10135;50.702;7.276;2023-04-19T14:38:36;19.10;39.90
19947;DHT22;10135;50.702;7.276;2023-04-19T14:40:36;19.00;39.80
19947;DHT22;10135;50.702;7.276;2023-04-19T14:42:37;19.00;39.70
19947;DHT22;10135;50.702;7.276;2023-04-19T14:44:38;19.00;39.70
19947;DHT22;10135;50.702;7.276;2023-04-19T14:46:39;19.00;39.70
19947;DHT22;10135;50.702;7.276;2023-04-19T14:48:40;19.00;39.50
19947;DHT22;10135;50.702;7.276;2023-04-19T14:50:41;19.00;39.30
19947;DHT22;10135;50.702;7.276;2023-04-19T14:52:42;19.00;39.30
19947;DHT22;10135;50.702;7.276;2023-04-19T14:54:43;18.90;39.30
19947;DHT22;10135;50.702;7.276;2023-04-19T14:56:43;18.90;38.80
19947;DHT22;10135;50.702;7.276;2023-04-19T14:58:44;18.90;39.10
19947;DHT22;10135;50.702;7.276;2023-04-19T15:00:45;18.80;38.80
19947;DHT22;10135;50.702;7.276;2023-04-19T15:02:45;18.80;38.80
19947;DHT22;10135;50.702;7.276;2023-04-19T15:04:46;18.70;38.80
19947;DHT22;10135;50.702;7.276;2023-04-19T15:06:47;18.70;39.00
19947;DHT22;10135;50.702;7.276;2023-04-19T15:08:47;18.60;38.50
19947;DHT22;10135;50.702;7.276;2023-04-19T15:10:48;18.60;38.60
19947;DHT22;10135;50.702;7.276;2023-04-19T15:12:49;18.50;38.70
19947;DHT22;10135;50.702;7.276;2023-04-19T15:14:49;18.50;38.30
19947;DHT22;10135;50.702;7.276;2023-04-19T15:16:50;18.40;38.50
19947;DHT22;10135;50.702;7.276;2023-04-19T15:18:51;18.40;38.70
19947;DHT22;10135;50.702;7.276;2023-04-19T15:20:51;18.30;38.30
19947;DHT22;10135;50.702;7.276;2023-04-19T15:22:52;18.30;38.50
19947;DHT22;10135;50.702;7.276;2023-04-19T15:24:53;18.20;38.30
19947;DHT22;10135;50.702;7.276;2023-04-19T15:26:53;18.20;38.10
19947;DHT22;10135;50.702;7.276;2023-04-19T15:28:54;18.20;38.40
19947;DHT22;10135;50.702;7.276;2023-04-19T15:31:01;18.10;38.00
19947;DHT22;10135;50.702;7.276;2023-04-19T15:33:03;18.10;37.90
19947;DHT22;10135;50.702;7.276;2023-04-19T15:35:04;18.10;38.00
19947;DHT22;10135;50.702;7.276;2023-04-19T15:37:05;18.00;38.10
19947;DHT22;10135;50.702;7.276;2023-04-19T15:39:07;18.00;37.90
19947;DHT22;10135;50.702;7.276;2023-04-19T15:41:08;18.00;38.00
19947;DHT22;10135;50.702;7.276;2023-04-19T15:43:10;18.00;38.00
19947;DHT22;10135;50.702;7.276;2023-04-19T15:45:10;18.00;37.80
19947;DHT22;10135;50.702;7.276;2023-04-19T15:47:11;17.90;37.90
19947;DHT22;10135;50.702;7.276;2023-04-19T15:49:12;17.90;38.50
19947;DHT22;10135;50.702;7.276;2023-04-19T15:51:13;17.90;37.70
19947;DHT22;10135;50.702;7.276;2023-04-19T15:53:14;17.80;37.20
19947;DHT22;10135;50.702;7.276;2023-04-19T15:55:15;17.80;37.50
19947;DHT22;10135;50.702;7.276;2023-04-19T15:57:17;17.70;37.30
19947;DHT22;10135;50.702;7.276;2023-04-19T15:59:17;17.80;37.50
19947;DHT22;10135;50.702;7.276;2023-04-19T16:01:18;17.70;37.50
19947;DHT22;10135;50.702;7.276;2023-04-19T16:03:19;17.70;37.40
19947;DHT22;10135;50.702;7.276;2023-04-19T16:05:19;17.60;37.30
19947;DHT22;10135;50.702;7.276;2023-04-19T16:07:20;17.60;37.30
19947;DHT22;10135;50.702;7.276;2023-04-19T16:09:21;17.60;37.40
19947;DHT22;10135;50.702;7.276;2023-04-19T16:11:22;17.50;37.40
19947;DHT22;10135;50.702;7.276;2023-04-19T16:13:22;17.50;37.40
19947;DHT22;10135;50.702;7.276;2023-04-19T16:15:23;17.40;36.90
19947;DHT22;10135;50.702;7.276;2023-04-19T16:17:24;17.40;37.20
19947;DHT22;10135;50.702;7.276;2023-04-19T16:19:24;17.40;37.00
19947;DHT22;10135;50.702;7.276;2023-04-19T16:21:25;17.30;37.20
19947;DHT22;10135;50.702;7.276;2023-04-19T16:23:27;17.30;37.00
19947;DHT22;10135;50.702;7.276;2023-04-19T16:25:29;17.30;37.20
19947;DHT22;10135;50.702;7.276;2023-04-19T16:27:30;17.20;36.90
19947;DHT22;10135;50.702;7.276;2023-04-19T16:29:31;17.20;36.90
19947;DHT22;10135;50.702;7.276;2023-04-19T16:31:33;17.10;37.00
19947;DHT22;10135;50.702;7.276;2023-04-19T16:33:34;17.10;36.80
19947;DHT22;10135;50.702;7.276;2023-04-19T16:35:34;17.10;36.70
19947;DHT22;10135;50.702;7.276;2023-04-19T16:37:35;17.00;36.60
19947;DHT22;10135;50.702;7.276;2023-04-19T16:39:36;17.00;36.80
19947;DHT22;10135;50.702;7.276;2023-04-19T16:41:36;17.00;36.70
19947;DHT22;10135;50.702;7.276;2023-04-19T16:43:37;16.90;36.70
19947;DHT22;10135;50.702;7.276;2023-04-19T16:45:38;16.90;36.70
19947;DHT22;10135;50.702;7.276;2023-04-19T16:47:39;16.90;36.70
19947;DHT22;10135;50.702;7.276;2023-04-19T16:49:40;16.80;36.50
19947;DHT22;10135;50.702;7.276;2023-04-19T16:51:40;16.80;37.10
19947;DHT22;10135;50.702;7.276;2023-04-19T16:53:41;16.70;36.50
19947;DHT22;10135;50.702;7.276;2023-04-19T16:55:42;16.70;36.70
19947;DHT22;10135;50.702;7.276;2023-04-19T16:57:44;16.60;36.50
19947;DHT22;10135;50.702;7.276;2023-04-19T16:59:45;16.60;36.40
19947;DHT22;10135;50.702;7.276;2023-04-19T17:01:46;16.60;36.40
19947;DHT22;10135;50.702;7.276;2023-04-19T17:03:47;16.50;36.20
19947;DHT22;10135;50.702;7.276;2023-04-19T17:05:48;16.50;36.40
19947;DHT22;10135;50.702;7.276;2023-04-19T17:07:49;16.50;36.30
19947;DHT22;10135;50.702;7.276;2023-04-19T17:09:51;16.40;36.40
19947;DHT22;10135;50.702;7.276;2023-04-19T17:11:51;16.40;36.40
19947;DHT22;10135;50.702;7.276;2023-04-19T17:13:52;16.40;36.50
19947;DHT22;10135;50.702;7.276;2023-04-19T17:15:52;16.30;36.30
19947;DHT22;10135;50.702;7.276;2023-04-19T17:17:53;16.30;36.30
19947;DHT22;10135;50.702;7.276;2023-04-19T17:19:54;16.30;36.30
19947;DHT22;10135;50.702;7.276;2023-04-19T17:21:55;16.20;36.30
19947;DHT22;10135;50.702;7.276;2023-04-19T17:23:57;16.20;36.30
19947;DHT22;10135;50.702;7.276;2023-04-19T17:25:58;16.20;36.40
19947;DHT22;10135;50.702;7.276;2023-04-19T17:27:59;16.10;36.30
19947;DHT22;10135;50.702;7.276;2023-04-19T17:29:59;16.10;36.30
19947;DHT22;10135;50.702;7.276;2023-04-19T17:32:00;16.10;36.40
19947;DHT22;10135;50.702;7.276;2023-04-19T17:34:01;16.00;36.20
19947;DHT22;10135;50.702;7.276;2023-04-19T17:36:01;16.00;36.30
19947;DHT22;10135;50.702;7.276;2023-04-19T17:38:02;16.00;36.40
19947;DHT22;10135;50.702;7.276;2023-04-19T17:40:04;15.90;36.40
19947;DHT22;10135;50.702;7.276;2023-04-19T17:42:05;15.90;36.30
19947;DHT22;10135;50.702;7.276;2023-04-19T17:44:06;15.90;36.40
19947;DHT22;10135;50.702;7.276;2023-04-19T17:46:06;15.80;36.40
19947;DHT22;10135;50.702;7.276;2023-04-19T17:48:07;15.80;36.20
19947;DHT22;10135;50.702;7.276;2023-04-19T17:50:09;15.80;36.10
19947;DHT22;10135;50.702;7.276;2023-04-19T17:52:12;15.70;36.10
19947;DHT22;10135;50.702;7.276;2023-04-19T17:54:13;15.70;36.30
19947;DHT22;10135;50.702;7.276;2023-04-19T17:56:14;15.70;36.30
19947;DHT22;10135;50.702;7.276;2023-04-19T17:58:15;15.60;36.30
19947;DHT22;10135;50.702;7.276;2023-04-19T18:00:16;15.60;36.10
19947;DHT22;10135;50.702;7.276;2023-04-19T18:02:17;15.60;36.30
19947;DHT22;10135;50.702;7.276;2023-04-19T18:04:17;15.60;36.40